sensor_id;sensor_type;location;lat;lon;timestamp;P1;durP1;ratioP1;P2;durP2;ratioP2
19171;SDS011;9718;52.200;21.052;2023-03-01T00:01:16;54.70;;;24.10;;
19171;SDS011;9718;52.200;21.052;2023-03-01T00:03:45;59.30;;;25.07;;
19171;SDS011;9718;52.200;21.052;2023-03-01T00:06:13;53.97;;;22.97;;
19171;SDS011;9718;52.200;21.052;2023-03-01T00:08:41;57.97;;;27.53;;
19171;SDS011;9718;52.200;21.052;2023-03-01T00:13:43;55.83;;;24.67;;
19171;SDS011;9718;52.200;21.052;2023-03-01T00:16:13;59.60;;;24.37;;
19171;SDS011;9718;52.200;21.052;2023-03-01T00:18:45;57.80;;;24.70;;
19171;SDS011;9718;52.200;21.052;2023-03-01T00:21:13;65.73;;;24.40;;
19171;SDS011;9718;52.200;21.052;2023-03-01T00:23:40;65.30;;;23.93;;
19171;SDS011;9718;52.200;21.052;2023-03-01T00:26:09;67.40;;;25.20;;
19171;SDS011;9718;52.200;21.052;2023-03-01T00:28:38;53.40;;;26.37;;
19171;SDS011;9718;52.200;21.052;2023-03-01T00:31:06;57.03;;;23.93;;
19171;SDS011;9718;52.200;21.052;2023-03-01T00:33:35;58.27;;;25.20;;
19171;SDS011;9718;52.200;21.052;2023-03-01T00:36:02;59.70;;;24.93;;
19171;SDS011;9718;52.200;21.052;2023-03-01T00:38:30;59.33;;;26.00;;
19171;SDS011;9718;52.200;21.052;2023-03-01T00:41:03;58.63;;;25.30;;
19171;SDS011;9718;52.200;21.052;2023-03-01T00:43:31;56.47;;;25.10;;
19171;SDS011;9718;52.200;21.052;2023-03-01T00:46:07;61.73;;;26.70;;
19171;SDS011;9718;52.200;21.052;2023-03-01T00:48:36;54.23;;;24.63;;
19171;SDS011;9718;52.200;21.052;2023-03-01T00:51:04;62.20;;;24.57;;
19171;SDS011;9718;52.200;21.052;2023-03-01T00:53:36;57.53;;;25.63;;
19171;SDS011;9718;52.200;21.052;2023-03-01T00:56:04;63.33;;;25.53;;
19171;SDS011;9718;52.200;21.052;2023-03-01T00:58:33;61.10;;;25.77;;
19171;SDS011;9718;52.200;21.052;2023-03-01T01:01:06;58.40;;;25.20;;
19171;SDS011;9718;52.200;21.052;2023-03-01T01:03:46;61.80;;;25.17;;
19171;SDS011;9718;52.200;21.052;2023-03-01T01:06:22;57.33;;;24.73;;
19171;SDS011;9718;52.200;21.052;2023-03-01T01:08:51;52.70;;;25.30;;
19171;SDS011;9718;52.200;21.052;2023-03-01T01:11:20;62.67;;;27.13;;
19171;SDS011;9718;52.200;21.052;2023-03-01T01:13:49;61.03;;;25.17;;
19171;SDS011;9718;52.200;21.052;2023-03-01T01:16:17;55.87;;;24.83;;
19171;SDS011;9718;52.200;21.052;2023-03-01T01:18:46;61.03;;;24.60;;
19171;SDS011;9718;52.200;21.052;2023-03-01T01:21:15;58.80;;;25.53;;
19171;SDS011;9718;52.200;21.052;2023-03-01T01:23:45;48.50;;;22.40;;
19171;SDS011;9718;52.200;21.052;2023-03-01T01:26:15;52.03;;;22.80;;
19171;SDS011;9718;52.200;21.052;2023-03-01T01:28:44;53.07;;;24.03;;
19171;SDS011;9718;52.200;21.052;2023-03-01T01:31:12;52.57;;;24.47;;
19171;SDS011;9718;52.200;21.052;2023-03-01T01:33:39;56.17;;;23.77;;
19171;SDS011;9718;52.200;21.052;2023-03-01T01:36:07;51.97;;;22.07;;
19171;SDS011;9718;52.200;21.052;2023-03-01T01:38:35;50.90;;;22.83;;
19171;SDS011;9718;52.200;21.052;2023-03-01T01:41:03;43.00;;;18.23;;
19171;SDS011;9718;52.200;21.052;2023-03-01T01:43:36;43.43;;;20.90;;
19171;SDS011;9718;52.200;21.052;2023-03-01T01:46:27;41.03;;;20.80;;
19171;SDS011;9718;52.200;21.052;2023-03-01T01:49:00;53.83;;;22.27;;
19171;SDS011;9718;52.200;21.052;2023-03-01T01:51:33;47.90;;;21.33;;
19171;SDS011;9718;52.200;21.052;2023-03-01T01:54:14;55.00;;;22.50;;
19171;SDS011;9718;52.200;21.052;2023-03-01T01:56:48;51.43;;;21.73;;
19171;SDS011;9718;52.200;21.052;2023-03-01T01:59:20;50.70;;;21.57;;
19171;SDS011;9718;52.200;21.052;2023-03-01T02:01:51;59.77;;;22.87;;
19171;SDS011;9718;52.200;21.052;2023-03-01T02:04:19;53.23;;;22.13;;
19171;SDS011;9718;52.200;21.052;2023-03-01T02:06:49;54.60;;;20.97;;
19171;SDS011;9718;52.200;21.052;2023-03-01T02:09:22;48.63;;;20.63;;
19171;SDS011;9718;52.200;21.052;2023-03-01T02:11:52;55.70;;;23.40;;
19171;SDS011;9718;52.200;21.052;2023-03-01T02:14:20;47.97;;;21.60;;
19171;SDS011;9718;52.200;21.052;2023-03-01T02:16:47;50.07;;;21.90;;
19171;SDS011;9718;52.200;21.052;2023-03-01T02:19:23;50.33;;;20.20;;
19171;SDS011;9718;52.200;21.052;2023-03-01T02:22:13;52.97;;;22.70;;
19171;SDS011;9718;52.200;21.052;2023-03-01T02:30:18;53.17;;;22.57;;
19171;SDS011;9718;52.200;21.052;2023-03-01T02:32:47;55.63;;;21.87;;
19171;SDS011;9718;52.200;21.052;2023-03-01T02:35:16;53.43;;;24.50;;
19171;SDS011;9718;52.200;21.052;2023-03-01T02:37:45;49.40;;;22.00;;
19171;SDS011;9718;52.200;21.052;2023-03-01T02:40:15;48.47;;;21.03;;
19171;SDS011;9718;52.200;21.052;2023-03-01T02:42:47;52.97;;;22.70;;
19171;SDS011;9718;52.200;21.052;2023-03-01T02:45:22;50.23;;;21.87;;
19171;SDS011;9718;52.200;21.052;2023-03-01T02:47:52;53.53;;;21.43;;
19171;SDS011;9718;52.200;21.052;2023-03-01T02:52:57;53.13;;;21.57;;
19171;SDS011;9718;52.200;21.052;2023-03-01T02:55:32;49.90;;;21.90;;
19171;SDS011;9718;52.200;21.052;2023-03-01T02:58:00;53.63;;;21.50;;
19171;SDS011;9718;52.200;21.052;2023-03-01T03:00:39;57.80;;;23.27;;
19171;SDS011;9718;52.200;21.052;2023-03-01T03:03:13;50.37;;;21.57;;
19171;SDS011;9718;52.200;21.052;2023-03-01T03:05:41;50.90;;;24.10;;
19171;SDS011;9718;52.200;21.052;2023-03-01T03:08:09;53.00;;;21.60;;
19171;SDS011;9718;52.200;21.052;2023-03-01T03:10:38;56.80;;;23.90;;
19171;SDS011;9718;52.200;21.052;2023-03-01T03:13:07;59.80;;;22.30;;
19171;SDS011;9718;52.200;21.052;2023-03-01T03:15:40;47.67;;;21.23;;
19171;SDS011;9718;52.200;21.052;2023-03-01T03:18:09;52.57;;;23.53;;
19171;SDS011;9718;52.200;21.052;2023-03-01T03:20:41;48.07;;;21.33;;
19171;SDS011;9718;52.200;21.052;2023-03-01T03:23:10;51.03;;;21.83;;
19171;SDS011;9718;52.200;21.052;2023-03-01T03:25:37;54.60;;;22.87;;
19171;SDS011;9718;52.200;21.052;2023-03-01T03:28:05;51.47;;;21.43;;
19171;SDS011;9718;52.200;21.052;2023-03-01T03:30:37;49.77;;;22.57;;
19171;SDS011;9718;52.200;21.052;2023-03-01T03:33:06;48.40;;;20.83;;
19171;SDS011;9718;52.200;21.052;2023-03-01T03:35:39;59.67;;;22.90;;
19171;SDS011;9718;52.200;21.052;2023-03-01T03:38:12;56.03;;;21.53;;
19171;SDS011;9718;52.200;21.052;2023-03-01T03:40:52;46.53;;;20.50;;
19171;SDS011;9718;52.200;21.052;2023-03-01T03:43:29;47.80;;;20.30;;
19171;SDS011;9718;52.200;21.052;2023-03-01T03:45:58;53.10;;;23.90;;
19171;SDS011;9718;52.200;21.052;2023-03-01T03:48:26;60.63;;;24.50;;
19171;SDS011;9718;52.200;21.052;2023-03-01T03:50:54;50.73;;;21.87;;
19171;SDS011;9718;52.200;21.052;2023-03-01T03:53:23;51.30;;;20.93;;
19171;SDS011;9718;52.200;21.052;2023-03-01T03:55:52;50.07;;;22.40;;
19171;SDS011;9718;52.200;21.052;2023-03-01T03:58:21;43.10;;;20.37;;
19171;SDS011;9718;52.200;21.052;2023-03-01T04:00:50;54.23;;;23.00;;
19171;SDS011;9718;52.200;21.052;2023-03-01T04:03:19;45.23;;;20.80;;
19171;SDS011;9718;52.200;21.052;2023-03-01T04:05:46;57.30;;;25.13;;
19171;SDS011;9718;52.200;21.052;2023-03-01T04:08:14;56.87;;;22.90;;
19171;SDS011;9718;52.200;21.052;2023-03-01T04:10:42;53.37;;;22.87;;
19171;SDS011;9718;52.200;21.052;2023-03-01T04:13:13;44.00;;;22.60;;
19171;SDS011;9718;52.200;21.052;2023-03-01T04:15:42;46.57;;;22.13;;
19171;SDS011;9718;52.200;21.052;2023-03-01T04:18:12;58.60;;;26.07;;
19171;SDS011;9718;52.200;21.052;2023-03-01T04:20:40;53.43;;;20.00;;
19171;SDS011;9718;52.200;21.052;2023-03-01T04:23:08;53.10;;;21.50;;
19171;SDS011;9718;52.200;21.052;2023-03-01T04:25:40;50.87;;;21.63;;
19171;SDS011;9718;52.200;21.052;2023-03-01T04:28:25;55.87;;;23.93;;
19171;SDS011;9718;52.200;21.052;2023-03-01T04:30:54;54.13;;;22.17;;
19171;SDS011;9718;52.200;21.052;2023-03-01T04:33:23;52.30;;;20.63;;
19171;SDS011;9718;52.200;21.052;2023-03-01T04:35:51;42.53;;;20.50;;
19171;SDS011;9718;52.200;21.052;2023-03-01T04:38:19;49.67;;;23.37;;
19171;SDS011;9718;52.200;21.052;2023-03-01T04:40:47;52.37;;;24.00;;
19171;SDS011;9718;52.200;21.052;2023-03-01T04:43:15;53.63;;;23.10;;
19171;SDS011;9718;52.200;21.052;2023-03-01T04:45:42;48.77;;;22.80;;
19171;SDS011;9718;52.200;21.052;2023-03-01T04:48:09;48.00;;;21.10;;
19171;SDS011;9718;52.200;21.052;2023-03-01T04:50:36;50.83;;;21.67;;
19171;SDS011;9718;52.200;21.052;2023-03-01T04:53:04;55.23;;;23.87;;
19171;SDS011;9718;52.200;21.052;2023-03-01T04:55:31;52.27;;;20.20;;
19171;SDS011;9718;52.200;21.052;2023-03-01T04:57:58;53.37;;;22.00;;
19171;SDS011;9718;52.200;21.052;2023-03-01T05:00:25;50.97;;;21.13;;
19171;SDS011;9718;52.200;21.052;2023-03-01T05:02:57;47.77;;;20.40;;
19171;SDS011;9718;52.200;21.052;2023-03-01T05:05:27;61.90;;;26.23;;
19171;SDS011;9718;52.200;21.052;2023-03-01T05:08:04;56.33;;;26.30;;
19171;SDS011;9718;52.200;21.052;2023-03-01T05:10:33;49.53;;;22.03;;
19171;SDS011;9718;52.200;21.052;2023-03-01T05:13:03;50.90;;;20.70;;
19171;SDS011;9718;52.200;21.052;2023-03-01T05:15:31;56.80;;;24.20;;
19171;SDS011;9718;52.200;21.052;2023-03-01T05:17:59;53.03;;;20.10;;
19171;SDS011;9718;52.200;21.052;2023-03-01T05:20:27;50.57;;;22.53;;
19171;SDS011;9718;52.200;21.052;2023-03-01T05:22:57;50.73;;;21.93;;
19171;SDS011;9718;52.200;21.052;2023-03-01T05:25:26;60.37;;;25.60;;
19171;SDS011;9718;52.200;21.052;2023-03-01T05:28:00;66.07;;;25.87;;
19171;SDS011;9718;52.200;21.052;2023-03-01T05:30:34;54.70;;;21.83;;
19171;SDS011;9718;52.200;21.052;2023-03-01T05:33:02;56.50;;;21.67;;
19171;SDS011;9718;52.200;21.052;2023-03-01T05:35:29;50.77;;;22.90;;
19171;SDS011;9718;52.200;21.052;2023-03-01T05:37:59;52.30;;;22.43;;
19171;SDS011;9718;52.200;21.052;2023-03-01T05:40:26;50.27;;;21.50;;
19171;SDS011;9718;52.200;21.052;2023-03-01T05:42:54;51.77;;;21.40;;
19171;SDS011;9718;52.200;21.052;2023-03-01T05:45:23;55.10;;;21.67;;
19171;SDS011;9718;52.200;21.052;2023-03-01T05:47:52;52.67;;;21.53;;
19171;SDS011;9718;52.200;21.052;2023-03-01T05:50:22;54.70;;;22.47;;
19171;SDS011;9718;52.200;21.052;2023-03-01T05:52:56;48.70;;;20.17;;
19171;SDS011;9718;52.200;21.052;2023-03-01T05:55:23;57.30;;;23.53;;
19171;SDS011;9718;52.200;21.052;2023-03-01T05:57:53;56.30;;;23.47;;
19171;SDS011;9718;52.200;21.052;2023-03-01T06:00:21;56.00;;;23.70;;
19171;SDS011;9718;52.200;21.052;2023-03-01T06:02:50;56.67;;;23.50;;
19171;SDS011;9718;52.200;21.052;2023-03-01T06:05:18;48.63;;;21.47;;
19171;SDS011;9718;52.200;21.052;2023-03-01T06:07:45;53.23;;;22.00;;
19171;SDS011;9718;52.200;21.052;2023-03-01T06:10:13;47.87;;;21.80;;
19171;SDS011;9718;52.200;21.052;2023-03-01T06:12:41;49.90;;;21.40;;
19171;SDS011;9718;52.200;21.052;2023-03-01T06:15:09;48.83;;;22.13;;
19171;SDS011;9718;52.200;21.052;2023-03-01T06:17:39;42.10;;;20.43;;
19171;SDS011;9718;52.200;21.052;2023-03-01T06:20:14;57.87;;;22.70;;
19171;SDS011;9718;52.200;21.052;2023-03-01T06:22:43;52.13;;;20.40;;
19171;SDS011;9718;52.200;21.052;2023-03-01T06:25:11;48.40;;;22.13;;
19171;SDS011;9718;52.200;21.052;2023-03-01T06:27:40;46.87;;;21.03;;
19171;SDS011;9718;52.200;21.052;2023-03-01T06:30:09;46.73;;;21.90;;
19171;SDS011;9718;52.200;21.052;2023-03-01T06:32:38;52.53;;;21.63;;
19171;SDS011;9718;52.200;21.052;2023-03-01T06:35:12;49.00;;;21.93;;
19171;SDS011;9718;52.200;21.052;2023-03-01T06:37:41;48.70;;;21.97;;
19171;SDS011;9718;52.200;21.052;2023-03-01T06:40:08;48.73;;;21.97;;
19171;SDS011;9718;52.200;21.052;2023-03-01T06:42:38;53.33;;;23.30;;
19171;SDS011;9718;52.200;21.052;2023-03-01T06:45:08;45.37;;;20.20;;
19171;SDS011;9718;52.200;21.052;2023-03-01T06:47:36;44.53;;;19.80;;
19171;SDS011;9718;52.200;21.052;2023-03-01T06:50:03;47.90;;;21.50;;
19171;SDS011;9718;52.200;21.052;2023-03-01T06:52:31;50.00;;;20.33;;
19171;SDS011;9718;52.200;21.052;2023-03-01T06:54:58;48.47;;;20.47;;
19171;SDS011;9718;52.200;21.052;2023-03-01T06:57:25;51.27;;;21.63;;
19171;SDS011;9718;52.200;21.052;2023-03-01T06:59:53;42.70;;;20.93;;
19171;SDS011;9718;52.200;21.052;2023-03-01T07:02:20;42.80;;;20.97;;
19171;SDS011;9718;52.200;21.052;2023-03-01T07:04:51;50.27;;;21.57;;
19171;SDS011;9718;52.200;21.052;2023-03-01T07:07:19;47.27;;;20.50;;
19171;SDS011;9718;52.200;21.052;2023-03-01T07:09:46;61.43;;;31.20;;
19171;SDS011;9718;52.200;21.052;2023-03-01T07:12:15;48.90;;;20.80;;
19171;SDS011;9718;52.200;21.052;2023-03-01T07:14:43;47.07;;;20.03;;
19171;SDS011;9718;52.200;21.052;2023-03-01T07:17:11;41.60;;;19.30;;
19171;SDS011;9718;52.200;21.052;2023-03-01T07:19:38;42.60;;;19.90;;
19171;SDS011;9718;52.200;21.052;2023-03-01T07:22:05;39.10;;;18.93;;
19171;SDS011;9718;52.200;21.052;2023-03-01T07:24:34;44.10;;;20.27;;
19171;SDS011;9718;52.200;21.052;2023-03-01T07:27:01;44.33;;;20.80;;
19171;SDS011;9718;52.200;21.052;2023-03-01T07:29:28;41.57;;;21.43;;
19171;SDS011;9718;52.200;21.052;2023-03-01T07:31:56;46.17;;;20.00;;
19171;SDS011;9718;52.200;21.052;2023-03-01T07:34:23;42.53;;;20.50;;
19171;SDS011;9718;52.200;21.052;2023-03-01T07:36:50;35.87;;;17.17;;
19171;SDS011;9718;52.200;21.052;2023-03-01T07:39:17;46.53;;;21.87;;
19171;SDS011;9718;52.200;21.052;2023-03-01T07:41:45;42.20;;;18.70;;
19171;SDS011;9718;52.200;21.052;2023-03-01T07:44:12;40.50;;;19.13;;
19171;SDS011;9718;52.200;21.052;2023-03-01T07:46:39;38.90;;;18.50;;
19171;SDS011;9718;52.200;21.052;2023-03-01T07:49:07;36.60;;;17.83;;
19171;SDS011;9718;52.200;21.052;2023-03-01T07:51:34;35.83;;;18.37;;
19171;SDS011;9718;52.200;21.052;2023-03-01T07:54:01;40.67;;;18.40;;
19171;SDS011;9718;52.200;21.052;2023-03-01T07:56:28;40.00;;;20.00;;
19171;SDS011;9718;52.200;21.052;2023-03-01T07:58:56;36.77;;;19.20;;
19171;SDS011;9718;52.200;21.052;2023-03-01T08:01:25;36.43;;;18.57;;
19171;SDS011;9718;52.200;21.052;2023-03-01T08:03:52;42.37;;;19.50;;
19171;SDS011;9718;52.200;21.052;2023-03-01T08:06:20;34.43;;;18.10;;
19171;SDS011;9718;52.200;21.052;2023-03-01T08:08:47;34.57;;;17.90;;
19171;SDS011;9718;52.200;21.052;2023-03-01T08:11:14;37.00;;;17.83;;
19171;SDS011;9718;52.200;21.052;2023-03-01T08:13:42;32.70;;;16.03;;
19171;SDS011;9718;52.200;21.052;2023-03-01T08:16:11;32.27;;;16.37;;
19171;SDS011;9718;52.200;21.052;2023-03-01T08:18:39;32.90;;;17.97;;
19171;SDS011;9718;52.200;21.052;2023-03-01T08:21:08;36.43;;;16.53;;
19171;SDS011;9718;52.200;21.052;2023-03-01T08:23:40;29.87;;;16.37;;
19171;SDS011;9718;52.200;21.052;2023-03-01T08:26:16;28.13;;;15.03;;
19171;SDS011;9718;52.200;21.052;2023-03-01T08:28:45;33.17;;;17.63;;
19171;SDS011;9718;52.200;21.052;2023-03-01T08:31:18;28.10;;;14.50;;
19171;SDS011;9718;52.200;21.052;2023-03-01T08:33:50;30.87;;;15.10;;
19171;SDS011;9718;52.200;21.052;2023-03-01T08:36:24;29.87;;;16.00;;
19171;SDS011;9718;52.200;21.052;2023-03-01T08:38:53;30.93;;;14.77;;
19171;SDS011;9718;52.200;21.052;2023-03-01T08:41:20;26.60;;;15.33;;
19171;SDS011;9718;52.200;21.052;2023-03-01T08:43:48;29.90;;;14.37;;
19171;SDS011;9718;52.200;21.052;2023-03-01T08:46:15;30.03;;;14.70;;
19171;SDS011;9718;52.200;21.052;2023-03-01T08:48:42;28.90;;;13.70;;
19171;SDS011;9718;52.200;21.052;2023-03-01T08:51:11;27.60;;;13.70;;
19171;SDS011;9718;52.200;21.052;2023-03-01T08:53:45;33.83;;;14.87;;
19171;SDS011;9718;52.200;21.052;2023-03-01T08:56:13;31.63;;;15.47;;
19171;SDS011;9718;52.200;21.052;2023-03-01T08:58:45;30.20;;;16.60;;
19171;SDS011;9718;52.200;21.052;2023-03-01T09:01:15;26.83;;;13.83;;
19171;SDS011;9718;52.200;21.052;2023-03-01T09:03:43;29.17;;;15.60;;
19171;SDS011;9718;52.200;21.052;2023-03-01T09:06:11;28.43;;;15.93;;
19171;SDS011;9718;52.200;21.052;2023-03-01T09:08:40;29.70;;;15.70;;
19171;SDS011;9718;52.200;21.052;2023-03-01T09:11:09;31.40;;;16.77;;
19171;SDS011;9718;52.200;21.052;2023-03-01T09:13:53;28.43;;;15.37;;
19171;SDS011;9718;52.200;21.052;2023-03-01T09:16:21;33.37;;;16.33;;
19171;SDS011;9718;52.200;21.052;2023-03-01T09:18:50;31.67;;;16.87;;
19171;SDS011;9718;52.200;21.052;2023-03-01T09:21:19;30.43;;;15.97;;
19171;SDS011;9718;52.200;21.052;2023-03-01T09:24:05;29.00;;;15.70;;
19171;SDS011;9718;52.200;21.052;2023-03-01T09:26:39;33.93;;;16.17;;
19171;SDS011;9718;52.200;21.052;2023-03-01T09:29:06;33.47;;;15.47;;
19171;SDS011;9718;52.200;21.052;2023-03-01T09:31:36;28.23;;;14.73;;
19171;SDS011;9718;52.200;21.052;2023-03-01T09:34:03;30.27;;;14.90;;
19171;SDS011;9718;52.200;21.052;2023-03-01T09:36:31;28.17;;;14.90;;
19171;SDS011;9718;52.200;21.052;2023-03-01T09:39:00;25.57;;;14.50;;
19171;SDS011;9718;52.200;21.052;2023-03-01T09:46:52;29.57;;;15.20;;
19171;SDS011;9718;52.200;21.052;2023-03-01T09:49:23;32.77;;;16.30;;
19171;SDS011;9718;52.200;21.052;2023-03-01T09:54:36;26.67;;;15.60;;
19171;SDS011;9718;52.200;21.052;2023-03-01T10:10:53;24.37;;;13.47;;
19171;SDS011;9718;52.200;21.052;2023-03-01T10:15:56;28.03;;;13.43;;
19171;SDS011;9718;52.200;21.052;2023-03-01T10:18:26;28.40;;;13.13;;
19171;SDS011;9718;52.200;21.052;2023-03-01T10:21:00;26.77;;;12.17;;
19171;SDS011;9718;52.200;21.052;2023-03-01T10:23:30;23.57;;;12.20;;
19171;SDS011;9718;52.200;21.052;2023-03-01T10:31:26;25.03;;;13.03;;
19171;SDS011;9718;52.200;21.052;2023-03-01T10:34:10;25.23;;;12.07;;
19171;SDS011;9718;52.200;21.052;2023-03-01T10:36:50;24.53;;;11.30;;
19171;SDS011;9718;52.200;21.052;2023-03-01T10:39:20;25.47;;;12.30;;
19171;SDS011;9718;52.200;21.052;2023-03-01T10:41:57;23.10;;;11.70;;
19171;SDS011;9718;52.200;21.052;2023-03-01T10:44:44;21.43;;;12.27;;
19171;SDS011;9718;52.200;21.052;2023-03-01T10:47:14;22.40;;;11.10;;
19171;SDS011;9718;52.200;21.052;2023-03-01T10:52:33;22.37;;;11.77;;
19171;SDS011;9718;52.200;21.052;2023-03-01T10:55:24;21.07;;;11.20;;
19171;SDS011;9718;52.200;21.052;2023-03-01T10:58:08;19.30;;;10.83;;
19171;SDS011;9718;52.200;21.052;2023-03-01T11:01:00;25.67;;;10.37;;
19171;SDS011;9718;52.200;21.052;2023-03-01T11:03:34;22.83;;;10.07;;
19171;SDS011;9718;52.200;21.052;2023-03-01T11:06:04;19.60;;;9.83;;
19171;SDS011;9718;52.200;21.052;2023-03-01T11:08:42;19.60;;;9.73;;
19171;SDS011;9718;52.200;21.052;2023-03-01T11:20:15;17.50;;;9.63;;
19171;SDS011;9718;52.200;21.052;2023-03-01T11:22:54;20.63;;;10.17;;
19171;SDS011;9718;52.200;21.052;2023-03-01T11:25:26;22.33;;;11.23;;
19171;SDS011;9718;52.200;21.052;2023-03-01T11:28:00;16.83;;;9.87;;
19171;SDS011;9718;52.200;21.052;2023-03-01T11:30:34;20.57;;;9.67;;
19171;SDS011;9718;52.200;21.052;2023-03-01T11:35:36;17.47;;;8.77;;
19171;SDS011;9718;52.200;21.052;2023-03-01T11:38:43;16.73;;;9.13;;
19171;SDS011;9718;52.200;21.052;2023-03-01T11:41:06;17.10;;;8.27;;
19171;SDS011;9718;52.200;21.052;2023-03-01T11:43:53;17.80;;;8.67;;
19171;SDS011;9718;52.200;21.052;2023-03-01T12:25:21;18.30;;;8.73;;
19171;SDS011;9718;52.200;21.052;2023-03-01T12:28:02;21.30;;;11.03;;
19171;SDS011;9718;52.200;21.052;2023-03-01T12:43:45;18.90;;;9.20;;
19171;SDS011;9718;52.200;21.052;2023-03-01T12:49:30;18.53;;;9.10;;
19171;SDS011;9718;52.200;21.052;2023-03-01T12:52:52;17.17;;;8.53;;
19171;SDS011;9718;52.200;21.052;2023-03-01T12:55:26;16.93;;;8.30;;
19171;SDS011;9718;52.200;21.052;2023-03-01T12:58:20;16.47;;;9.00;;
19171;SDS011;9718;52.200;21.052;2023-03-01T13:12:41;20.10;;;8.43;;
19171;SDS011;9718;52.200;21.052;2023-03-01T13:17:49;19.47;;;9.67;;
19171;SDS011;9718;52.200;21.052;2023-03-01T13:20:20;19.07;;;8.67;;
19171;SDS011;9718;52.200;21.052;2023-03-01T13:23:00;17.57;;;8.93;;
19171;SDS011;9718;52.200;21.052;2023-03-01T13:25:33;20.53;;;9.70;;
19171;SDS011;9718;52.200;21.052;2023-03-01T13:31:26;19.27;;;8.73;;
19171;SDS011;9718;52.200;21.052;2023-03-01T13:34:01;15.80;;;7.97;;
19171;SDS011;9718;52.200;21.052;2023-03-01T13:39:03;16.20;;;8.63;;
19171;SDS011;9718;52.200;21.052;2023-03-01T13:41:53;15.97;;;8.27;;
19171;SDS011;9718;52.200;21.052;2023-03-01T13:46:56;19.27;;;9.00;;
19171;SDS011;9718;52.200;21.052;2023-03-01T13:49:27;16.40;;;8.53;;
19171;SDS011;9718;52.200;21.052;2023-03-01T13:57:41;19.43;;;9.03;;
19171;SDS011;9718;52.200;21.052;2023-03-01T14:00:32;18.10;;;9.70;;
19171;SDS011;9718;52.200;21.052;2023-03-01T14:05:36;18.57;;;9.37;;
19171;SDS011;9718;52.200;21.052;2023-03-01T14:08:04;19.00;;;9.60;;
19171;SDS011;9718;52.200;21.052;2023-03-01T14:10:47;17.83;;;8.63;;
19171;SDS011;9718;52.200;21.052;2023-03-01T14:22:00;20.93;;;9.87;;
19171;SDS011;9718;52.200;21.052;2023-03-01T14:24:56;19.80;;;9.63;;
19171;SDS011;9718;52.200;21.052;2023-03-01T14:27:30;18.90;;;10.10;;
19171;SDS011;9718;52.200;21.052;2023-03-01T14:30:04;20.40;;;10.47;;
19171;SDS011;9718;52.200;21.052;2023-03-01T14:33:01;15.53;;;8.90;;
19171;SDS011;9718;52.200;21.052;2023-03-01T14:35:31;22.13;;;10.43;;
19171;SDS011;9718;52.200;21.052;2023-03-01T14:38:54;19.50;;;9.10;;
19171;SDS011;9718;52.200;21.052;2023-03-01T14:41:22;19.97;;;9.03;;
19171;SDS011;9718;52.200;21.052;2023-03-01T14:43:54;17.73;;;8.83;;
19171;SDS011;9718;52.200;21.052;2023-03-01T14:46:38;19.57;;;10.07;;
19171;SDS011;9718;52.200;21.052;2023-03-01T14:49:10;21.33;;;10.47;;
19171;SDS011;9718;52.200;21.052;2023-03-01T14:51:53;18.30;;;9.73;;
19171;SDS011;9718;52.200;21.052;2023-03-01T14:56:59;16.10;;;9.23;;
19171;SDS011;9718;52.200;21.052;2023-03-01T14:59:27;18.20;;;8.77;;
19171;SDS011;9718;52.200;21.052;2023-03-01T15:01:56;20.43;;;10.40;;
19171;SDS011;9718;52.200;21.052;2023-03-01T15:04:24;18.27;;;9.60;;
19171;SDS011;9718;52.200;21.052;2023-03-01T15:06:55;19.43;;;10.50;;
19171;SDS011;9718;52.200;21.052;2023-03-01T15:09:32;19.67;;;11.13;;
19171;SDS011;9718;52.200;21.052;2023-03-01T15:14:52;20.03;;;9.07;;
19171;SDS011;9718;52.200;21.052;2023-03-01T15:17:36;18.97;;;9.57;;
19171;SDS011;9718;52.200;21.052;2023-03-01T15:20:15;20.77;;;9.67;;
19171;SDS011;9718;52.200;21.052;2023-03-01T15:22:45;21.80;;;10.00;;
19171;SDS011;9718;52.200;21.052;2023-03-01T15:25:18;16.57;;;8.37;;
19171;SDS011;9718;52.200;21.052;2023-03-01T15:27:47;24.67;;;8.97;;
19171;SDS011;9718;52.200;21.052;2023-03-01T15:32:46;20.23;;;9.33;;
19171;SDS011;9718;52.200;21.052;2023-03-01T15:37:59;19.87;;;10.80;;
19171;SDS011;9718;52.200;21.052;2023-03-01T15:40:28;21.03;;;11.20;;
19171;SDS011;9718;52.200;21.052;2023-03-01T15:43:03;20.93;;;11.20;;
19171;SDS011;9718;52.200;21.052;2023-03-01T15:45:31;20.70;;;11.73;;
19171;SDS011;9718;52.200;21.052;2023-03-01T15:48:05;23.10;;;11.23;;
19171;SDS011;9718;52.200;21.052;2023-03-01T15:50:58;21.90;;;11.03;;
19171;SDS011;9718;52.200;21.052;2023-03-01T15:53:28;21.97;;;11.77;;
19171;SDS011;9718;52.200;21.052;2023-03-01T15:55:55;23.30;;;11.93;;
19171;SDS011;9718;52.200;21.052;2023-03-01T15:58:23;26.97;;;11.33;;
19171;SDS011;9718;52.200;21.052;2023-03-01T16:00:51;21.63;;;10.93;;
19171;SDS011;9718;52.200;21.052;2023-03-01T16:03:28;21.23;;;12.10;;
19171;SDS011;9718;52.200;21.052;2023-03-01T16:05:55;23.20;;;11.47;;
19171;SDS011;9718;52.200;21.052;2023-03-01T16:08:23;20.73;;;9.70;;
19171;SDS011;9718;52.200;21.052;2023-03-01T16:10:50;24.23;;;10.30;;
19171;SDS011;9718;52.200;21.052;2023-03-01T16:13:18;21.50;;;10.73;;
19171;SDS011;9718;52.200;21.052;2023-03-01T16:15:45;24.40;;;12.87;;
19171;SDS011;9718;52.200;21.052;2023-03-01T16:18:13;30.03;;;12.70;;
19171;SDS011;9718;52.200;21.052;2023-03-01T16:20:40;23.50;;;11.03;;
19171;SDS011;9718;52.200;21.052;2023-03-01T16:23:09;25.63;;;12.77;;
19171;SDS011;9718;52.200;21.052;2023-03-01T16:25:37;24.67;;;12.97;;
19171;SDS011;9718;52.200;21.052;2023-03-01T16:28:05;25.57;;;13.47;;
19171;SDS011;9718;52.200;21.052;2023-03-01T16:30:37;26.33;;;12.93;;
19171;SDS011;9718;52.200;21.052;2023-03-01T16:33:06;25.17;;;12.37;;
19171;SDS011;9718;52.200;21.052;2023-03-01T16:35:54;21.93;;;11.60;;
19171;SDS011;9718;52.200;21.052;2023-03-01T16:38:26;22.63;;;12.20;;
19171;SDS011;9718;52.200;21.052;2023-03-01T16:40:53;20.07;;;11.20;;
19171;SDS011;9718;52.200;21.052;2023-03-01T16:43:21;24.47;;;11.37;;
19171;SDS011;9718;52.200;21.052;2023-03-01T16:45:48;26.43;;;11.33;;
19171;SDS011;9718;52.200;21.052;2023-03-01T16:48:15;23.83;;;10.87;;
19171;SDS011;9718;52.200;21.052;2023-03-01T16:50:43;24.70;;;12.00;;
19171;SDS011;9718;52.200;21.052;2023-03-01T16:53:10;28.47;;;10.73;;
19171;SDS011;9718;52.200;21.052;2023-03-01T16:55:38;22.87;;;11.37;;
19171;SDS011;9718;52.200;21.052;2023-03-01T16:58:12;23.93;;;11.10;;
19171;SDS011;9718;52.200;21.052;2023-03-01T17:00:39;25.60;;;10.80;;
19171;SDS011;9718;52.200;21.052;2023-03-01T17:03:07;21.57;;;10.73;;
19171;SDS011;9718;52.200;21.052;2023-03-01T17:05:34;22.50;;;11.40;;
19171;SDS011;9718;52.200;21.052;2023-03-01T17:08:01;27.80;;;12.57;;
19171;SDS011;9718;52.200;21.052;2023-03-01T17:10:28;21.83;;;10.30;;
19171;SDS011;9718;52.200;21.052;2023-03-01T17:12:55;28.37;;;13.47;;
19171;SDS011;9718;52.200;21.052;2023-03-01T17:15:22;26.00;;;12.73;;
19171;SDS011;9718;52.200;21.052;2023-03-01T17:17:50;24.97;;;12.03;;
19171;SDS011;9718;52.200;21.052;2023-03-01T17:20:17;26.73;;;12.50;;
19171;SDS011;9718;52.200;21.052;2023-03-01T17:22:45;29.73;;;12.90;;
19171;SDS011;9718;52.200;21.052;2023-03-01T17:25:12;34.53;;;13.73;;
19171;SDS011;9718;52.200;21.052;2023-03-01T17:27:39;31.20;;;14.27;;